Time;durP1;ratioP1;P1;durP2;ratioP2;P2;SDS_P1;SDS_P2;PMS_P1;PMS_P2;Temp;Humidity;BMP_temperature;BMP_pressure;BME280_temperature;BME280_humidity;BME280_pressure;Samples;Min_cycle;Max_cycle;Signal;HPM_P1;HPM_P2
2022/09/09 00:01:17;;;;;;;2.00;0.77;;;15.30;99.90;;;;;;5060329;28;20172;-79
2022/09/09 00:03:48;;;;;;;0.93;0.50;;;15.20;99.90;;;;;;5061557;28;20198;-79
2022/09/09 00:06:20;;;;;;;1.67;0.90;;;15.30;99.90;;;;;;5061311;28;20152;-79
2022/09/09 00:09:08;;;;;;;4.00;0.97;;;15.20;99.90;;;;;;5061747;28;20614;-79
2022/09/09 00:11:43;;;;;;;1.93;0.63;;;15.20;99.90;;;;;;5062713;28;20517;-80
2022/09/09 00:14:49;;;;;;;5.87;0.87;;;15.20;99.90;;;;;;5060231;28;20234;-79
2022/09/09 00:17:39;;;;;;;2.77;0.90;;;15.20;99.90;;;;;;5061381;28;20199;-80
2022/09/09 00:20:19;;;;;;;1.03;0.60;;;15.20;99.90;;;;;;5057225;28;20163;-78
2022/09/09 00:23:06;;;;;;;1.90;0.90;;;15.20;99.90;;;;;;5056372;28;20640;-77
2022/09/09 00:29:07;;;;;;;3.37;0.67;;;15.20;99.90;;;;;;5078551;22;20246;-80
2022/09/09 00:31:33;;;;;;;1.67;0.80;;;15.20;99.90;;;;;;5066834;28;20216;-80
2022/09/09 00:34:22;;;;;;;2.33;0.73;;;15.30;99.90;;;;;;5066134;28;20199;-80
2022/09/09 00:36:51;;;;;;;1.50;0.97;;;15.10;99.90;;;;;;5065580;28;20186;-80
2022/09/09 00:39:41;;;;;;;2.93;0.77;;;15.20;99.90;;;;;;5064912;28;20191;-79
2022/09/09 00:42:42;;;;;;;2.30;0.70;;;15.20;99.90;;;;;;5064491;28;20191;-80
2022/09/09 00:45:32;;;;;;;5.30;0.97;;;15.20;99.90;;;;;;5064930;28;20175;-80
2022/09/09 00:48:06;;;;;;;2.17;1.10;;;15.20;99.90;;;;;;5064492;28;20196;-80
2022/09/09 00:50:52;;;;;;;1.20;0.57;;;15.30;99.90;;;;;;5065710;28;20196;-80
2022/09/09 00:53:25;;;;;;;0.90;0.83;;;15.10;99.90;;;;;;5066541;28;20194;-80
2022/09/09 00:56:08;;;;;;;0.93;0.83;;;15.20;99.90;;;;;;5066448;28;20163;-80
2022/09/09 00:58:34;;;;;;;4.87;0.90;;;15.20;99.90;;;;;;5065303;28;20187;-80
2022/09/09 01:01:09;;;;;;;2.57;0.77;;;15.30;99.90;;;;;;5065256;28;20178;-79
2022/09/09 01:03:37;;;;;;;3.70;0.77;;;15.20;99.90;;;;;;5063661;28;20220;-80
2022/09/09 01:06:14;;;;;;;1.50;0.67;;;15.10;99.90;;;;;;5063628;28;20203;-79
2022/09/09 01:09:02;;;;;;;2.57;0.80;;;15.10;99.90;;;;;;5062994;28;20222;-79
2022/09/09 01:11:49;;;;;;;3.87;0.90;;;15.10;99.90;;;;;;5064183;28;20202;-80
2022/09/09 01:14:33;;;;;;;4.00;0.87;;;15.20;99.90;;;;;;5062977;28;20202;-80
2022/09/09 01:17:19;;;;;;;1.10;0.77;;;15.10;99.90;;;;;;5063292;28;20198;-79
2022/09/09 01:19:57;;;;;;;6.00;1.17;;;15.10;99.90;;;;;;5063940;28;20156;-79
2022/09/09 01:22:45;;;;;;;2.20;0.80;;;15.00;99.90;;;;;;5063344;28;20223;-80
2022/09/09 01:25:31;;;;;;;2.57;0.87;;;15.10;99.90;;;;;;5063852;28;20182;-78
2022/09/09 01:28:04;;;;;;;2.03;0.93;;;15.00;99.90;;;;;;5063412;28;20213;-80
2022/09/09 01:30:32;;;;;;;4.67;1.07;;;15.00;99.90;;;;;;5062437;28;20637;-78
2022/09/09 01:33:00;;;;;;;1.30;0.83;;;14.90;99.90;;;;;;5062433;28;20203;-79
2022/09/09 01:35:50;;;;;;;4.83;0.90;;;14.90;99.90;;;;;;5063295;28;20180;-80
2022/09/09 01:38:17;;;;;;;2.50;0.80;;;14.90;99.90;;;;;;5063352;28;20270;-80
2022/09/09 01:40:43;;;;;;;4.57;1.10;;;15.00;99.90;;;;;;5063169;28;20207;-79
2022/09/09 01:43:09;;;;;;;1.60;0.87;;;14.90;99.90;;;;;;5062584;28;20164;-79
2022/09/09 01:45:35;;;;;;;2.40;0.87;;;14.80;99.90;;;;;;5061120;28;20598;-80
2022/09/09 01:48:02;;;;;;;1.23;0.80;;;14.80;99.90;;;;;;5062632;28;20195;-79
2022/09/09 01:50:28;;;;;;;1.53;0.80;;;14.80;99.90;;;;;;5061948;28;20171;-80
2022/09/09 01:52:58;;;;;;;2.60;0.70;;;14.90;99.90;;;;;;5061523;28;20306;-79
2022/09/09 01:55:33;;;;;;;2.87;0.93;;;16.20;99.90;;;;;;5061236;28;20673;-80
2022/09/09 01:58:35;;;;;;;3.53;1.00;;;14.70;99.90;;;;;;5062534;28;20183;-80
2022/09/09 02:01:07;;;;;;;1.70;0.97;;;14.70;99.90;;;;;;5062723;28;20630;-78
2022/09/09 02:03:35;;;;;;;3.60;0.90;;;14.70;99.90;;;;;;5061680;28;20183;-79
2022/09/09 02:06:32;;;;;;;1.73;0.90;;;14.90;99.90;;;;;;5060631;28;20175;-79
2022/09/09 02:09:00;;;;;;;1.97;0.90;;;14.70;99.90;;;;;;5062619;28;20196;-79
2022/09/09 02:11:28;;;;;;;3.60;1.03;;;14.80;99.90;;;;;;5062189;28;20168;-78
2022/09/09 02:14:02;;;;;;;2.77;1.13;;;14.80;99.90;;;;;;5062546;28;20199;-79
2022/09/09 02:16:35;;;;;;;2.33;1.20;;;14.80;99.90;;;;;;5061843;28;20246;-79
2022/09/09 02:19:30;;;;;;;1.10;1.00;;;14.90;99.90;;;;;;5059148;28;20313;-79
2022/09/09 02:21:59;;;;;;;1.47;1.00;;;14.90;99.90;;;;;;5055387;28;20198;-78
2022/09/09 02:24:27;;;;;;;1.83;1.10;;;14.90;99.90;;;;;;5060554;28;20175;-79
2022/09/09 02:26:55;;;;;;;3.73;1.20;;;14.90;99.90;;;;;;5060436;28;20182;-78
2022/09/09 02:29:27;;;;;;;1.67;1.10;;;14.90;99.90;;;;;;5062754;28;20218;-78
2022/09/09 02:31:58;;;;;;;2.07;1.20;;;15.40;99.90;;;;;;5060144;28;20187;-78
2022/09/09 02:34:25;;;;;;;3.07;1.27;;;15.00;99.90;;;;;;5059782;28;20195;-78
2022/09/09 02:36:53;;;;;;;2.10;0.97;;;15.10;99.90;;;;;;5062070;28;20168;-79
2022/09/09 02:39:19;;;;;;;3.07;1.03;;;15.00;99.90;;;;;;5060946;28;20693;-79
2022/09/09 02:41:44;;;;;;;1.80;1.20;;;15.00;99.90;;;;;;5059037;28;20210;-78
2022/09/09 02:44:12;;;;;;;3.37;1.27;;;15.00;99.90;;;;;;5060068;28;20175;-79
2022/09/09 02:46:45;;;;;;;2.73;1.07;;;15.10;99.90;;;;;;5061698;28;20183;-79
2022/09/09 02:49:17;;;;;;;1.93;1.13;;;15.00;99.90;;;;;;5062131;28;20192;-79
2022/09/09 02:51:43;;;;;;;3.70;1.40;;;15.00;99.90;;;;;;5060711;28;20655;-79
2022/09/09 02:54:20;;;;;;;3.77;1.43;;;15.10;99.90;;;;;;5059992;28;20257;-79
2022/09/09 02:56:52;;;;;;;1.97;1.33;;;15.00;99.90;;;;;;5060073;28;20167;-79
2022/09/09 02:59:18;;;;;;;7.20;3.00;;;15.00;99.90;;;;;;5061890;28;20198;-80
2022/09/09 03:01:44;;;;;;;3.50;1.73;;;15.00;99.90;;;;;;5061527;28;20634;-79
2022/09/09 03:04:10;;;;;;;2.50;1.23;;;15.40;99.90;;;;;;5060044;28;20225;-79
2022/09/09 03:06:35;;;;;;;3.07;1.50;;;15.10;99.90;;;;;;5061191;28;20180;-79
2022/09/09 03:09:02;;;;;;;5.00;1.90;;;15.10;99.90;;;;;;5060603;28;20238;-80
2022/09/09 03:11:28;;;;;;;2.30;1.40;;;15.10;99.90;;;;;;5060807;28;20175;-79
2022/09/09 03:13:55;;;;;;;5.77;1.70;;;15.10;99.90;;;;;;5060833;28;20206;-79
2022/09/09 03:16:22;;;;;;;3.00;1.60;;;15.20;99.90;;;;;;5062697;28;20192;-79
2022/09/09 03:18:47;;;;;;;2.40;1.77;;;15.10;99.90;;;;;;5061666;28;20283;-79
2022/09/09 03:21:14;;;;;;;3.40;1.43;;;15.10;99.90;;;;;;5061280;28;20203;-79
2022/09/09 03:23:39;;;;;;;2.57;1.73;;;15.10;99.90;;;;;;5060284;28;20190;-79
2022/09/09 03:26:05;;;;;;;5.47;1.30;;;15.10;99.90;;;;;;5060460;28;20183;-80
2022/09/09 03:28:31;;;;;;;4.00;1.30;;;15.10;99.90;;;;;;5060252;28;20238;-79
2022/09/09 03:31:05;;;;;;;4.33;1.43;;;15.00;99.90;;;;;;5060373;28;20183;-80
2022/09/09 03:33:31;;;;;;;4.93;1.40;;;15.10;99.90;;;;;;5059671;28;20214;-79
2022/09/09 03:35:57;;;;;;;6.00;1.57;;;15.20;99.90;;;;;;5061452;28;20171;-79
2022/09/09 03:38:26;;;;;;;4.03;1.50;;;15.10;99.90;;;;;;5062630;28;20199;-79
2022/09/09 03:40:55;;;;;;;3.00;1.90;;;15.20;99.90;;;;;;5061012;28;20642;-80
2022/09/09 03:43:21;;;;;;;3.63;1.43;;;15.10;99.90;;;;;;5059863;28;20188;-80
2022/09/09 03:45:48;;;;;;;4.07;1.53;;;15.10;99.90;;;;;;5060473;28;20218;-79
2022/09/09 03:48:15;;;;;;;6.43;1.60;;;15.10;99.90;;;;;;5059260;28;20263;-79
2022/09/09 03:50:47;;;;;;;7.47;1.70;;;15.10;99.90;;;;;;5061169;28;20221;-79
2022/09/09 03:53:15;;;;;;;6.07;1.13;;;15.10;99.90;;;;;;5059825;28;20206;-79
2022/09/09 03:55:48;;;;;;;2.73;1.47;;;15.10;99.90;;;;;;5059879;28;20176;-80
2022/09/09 03:58:15;;;;;;;7.37;1.70;;;15.10;99.90;;;;;;5061229;28;20202;-79
2022/09/09 04:00:42;;;;;;;5.47;1.50;;;15.10;99.90;;;;;;5060474;28;20179;-79
2022/09/09 04:03:09;;;;;;;2.93;1.53;;;15.00;99.90;;;;;;5060071;28;20181;-79
2022/09/09 04:05:39;;;;;;;4.30;1.60;;;15.00;99.90;;;;;;5061771;28;20183;-80
2022/09/09 04:08:06;;;;;;;4.60;1.60;;;15.00;99.90;;;;;;5061346;28;20203;-79
2022/09/09 04:10:31;;;;;;;5.97;1.83;;;15.00;99.90;;;;;;5063113;28;20171;-79
2022/09/09 04:12:57;;;;;;;2.97;1.30;;;14.90;99.90;;;;;;5063412;28;20215;-79
2022/09/09 04:15:22;;;;;;;1.63;1.10;;;14.90;99.90;;;;;;5062992;28;20258;-80
2022/09/09 04:17:48;;;;;;;3.07;1.20;;;14.90;99.90;;;;;;5062643;28;20199;-80
2022/09/09 04:20:13;;;;;;;3.93;1.83;;;15.60;99.90;;;;;;5062441;28;20255;-80
2022/09/09 04:22:39;;;;;;;3.37;1.40;;;14.90;99.90;;;;;;5064319;28;20608;-79
2022/09/09 04:25:08;;;;;;;5.57;1.50;;;14.90;99.90;;;;;;5066148;28;20213;-79
2022/09/09 04:27:33;;;;;;;3.03;1.50;;;14.80;99.90;;;;;;5067361;28;20184;-79
2022/09/09 04:29:59;;;;;;;4.43;1.13;;;14.80;99.90;;;;;;5068366;28;20163;-79
2022/09/09 04:32:26;;;;;;;5.00;1.57;;;14.80;99.90;;;;;;5068989;28;20202;-80
2022/09/09 04:34:52;;;;;;;9.20;1.77;;;14.90;99.90;;;;;;5068625;28;20168;-80
2022/09/09 04:37:18;;;;;;;1.33;1.13;;;14.90;99.90;;;;;;5067898;28;20178;-79
2022/09/09 04:39:44;;;;;;;1.93;1.27;;;14.90;99.90;;;;;;5066829;28;20252;-79
2022/09/09 04:42:10;;;;;;;5.83;1.50;;;14.90;99.90;;;;;;5067974;28;20172;-79
2022/09/09 04:44:35;;;;;;;3.27;1.40;;;15.40;99.90;;;;;;5067215;28;20179;-78
2022/09/09 04:47:01;;;;;;;2.97;1.20;;;14.90;99.90;;;;;;5066759;28;20250;-79
2022/09/09 04:49:26;;;;;;;3.67;1.40;;;14.90;99.90;;;;;;5062259;28;20200;-78
2022/09/09 04:51:52;;;;;;;4.00;1.40;;;14.90;99.90;;;;;;5063568;28;20171;-79
2022/09/09 04:54:18;;;;;;;3.73;1.57;;;14.90;99.90;;;;;;5064274;28;20199;-78
2022/09/09 04:56:44;;;;;;;4.87;1.30;;;14.90;99.90;;;;;;5064723;28;20233;-78
2022/09/09 04:59:10;;;;;;;3.10;1.40;;;14.90;99.90;;;;;;5063599;28;20192;-78
2022/09/09 05:01:35;;;;;;;5.10;1.57;;;14.90;99.90;;;;;;5061959;28;20176;-78
2022/09/09 05:04:02;;;;;;;5.60;1.70;;;15.00;99.90;;;;;;5065344;28;20172;-78
2022/09/09 05:06:29;;;;;;;1.80;1.30;;;15.00;99.90;;;;;;5066585;28;20180;-78
2022/09/09 05:08:55;;;;;;;3.87;1.47;;;15.00;99.90;;;;;;5066086;28;20206;-78
2022/09/09 05:11:24;;;;;;;2.03;1.20;;;14.90;99.90;;;;;;5062153;28;20518;-78
2022/09/09 05:13:50;;;;;;;5.73;1.70;;;15.00;99.90;;;;;;5060467;28;20200;-78
2022/09/09 05:16:16;;;;;;;4.00;1.60;;;15.00;99.90;;;;;;5060059;28;20254;-79
2022/09/09 05:18:43;;;;;;;5.30;1.27;;;15.00;99.90;;;;;;5055657;28;20204;-78
2022/09/09 05:21:09;;;;;;;3.07;1.90;;;15.00;99.90;;;;;;5057716;28;20168;-80
2022/09/09 05:23:36;;;;;;;4.00;1.80;;;15.00;99.90;;;;;;5060439;28;20194;-78
2022/09/09 05:26:03;;;;;;;4.80;1.57;;;15.00;99.90;;;;;;5061332;28;20176;-78
2022/09/09 05:28:30;;;;;;;5.10;1.60;;;15.10;99.90;;;;;;5063881;28;20218;-79
2022/09/09 05:31:05;;;;;;;4.70;1.60;;;15.00;99.90;;;;;;5068033;28;20534;-79
2022/09/09 05:33:31;;;;;;;5.00;1.60;;;15.10;99.90;;;;;;5067664;28;20206;-79
2022/09/09 05:36:03;;;;;;;4.23;1.93;;;15.10;99.90;;;;;;5068033;28;20171;-79
2022/09/09 05:38:29;;;;;;;4.37;1.70;;;15.10;99.90;;;;;;5066939;28;20218;-79
2022/09/09 05:40:56;;;;;;;5.03;1.80;;;15.10;99.90;;;;;;5068232;28;20206;-79
2022/09/09 05:43:22;;;;;;;5.93;1.47;;;15.10;99.90;;;;;;5068225;28;20171;-79
2022/09/09 05:45:48;;;;;;;6.17;1.93;;;15.10;99.90;;;;;;5068277;28;20168;-79
2022/09/09 05:48:17;;;;;;;7.30;1.87;;;15.10;99.90;;;;;;5067720;28;20245;-79
2022/09/09 05:50:54;;;;;;;3.77;1.50;;;15.20;99.90;;;;;;5067793;28;20176;-79
2022/09/09 05:53:20;;;;;;;2.80;1.50;;;15.30;99.90;;;;;;5067153;28;20198;-79
2022/09/09 05:55:46;;;;;;;2.83;1.50;;;15.20;99.90;;;;;;5070307;28;20176;-79
2022/09/09 05:58:11;;;;;;;2.80;1.47;;;15.20;99.90;;;;;;5071087;28;20247;-79
2022/09/09 06:00:37;;;;;;;5.83;1.77;;;15.30;99.90;;;;;;5069486;28;20638;-79
2022/09/09 06:03:03;;;;;;;3.47;1.63;;;15.30;99.90;;;;;;5068310;28;20175;-79
2022/09/09 06:05:30;;;;;;;7.37;1.50;;;15.30;99.90;;;;;;5069767;28;20274;-79
2022/09/09 06:07:55;;;;;;;5.00;1.73;;;15.30;99.90;;;;;;5068066;28;20215;-79
2022/09/09 06:10:22;;;;;;;8.50;1.97;;;15.30;99.90;;;;;;5069574;28;20545;-79
2022/09/09 06:12:47;;;;;;;3.40;1.50;;;15.40;99.90;;;;;;5069693;28;20272;-79
2022/09/09 06:15:13;;;;;;;4.70;1.80;;;15.30;99.90;;;;;;5073085;28;20562;-79
2022/09/09 06:17:38;;;;;;;3.50;1.40;;;15.40;99.90;;;;;;5071250;28;20218;-79
2022/09/09 06:20:04;;;;;;;2.30;1.30;;;15.40;99.90;;;;;;5071671;28;20190;-79
2022/09/09 06:22:30;;;;;;;7.13;1.70;;;15.40;99.90;;;;;;5070213;28;20206;-79
2022/09/09 06:24:56;;;;;;;5.07;1.83;;;15.40;99.90;;;;;;5069326;28;20176;-79
2022/09/09 06:29:50;;;;;;;4.40;1.80;;;15.50;99.90;;;;;;5094897;22;20231;-77
2022/09/09 06:32:16;;;;;;;5.20;1.77;;;15.50;99.90;;;;;;5073726;28;20710;-78
2022/09/09 06:34:41;;;;;;;7.10;2.07;;;15.50;99.90;;;;;;5075173;28;20194;-77
2022/09/09 06:37:08;;;;;;;5.57;1.83;;;15.60;99.90;;;;;;5074523;28;20167;-78
2022/09/09 06:39:33;;;;;;;3.93;1.90;;;15.60;99.90;;;;;;5073914;28;20191;-78
2022/09/09 06:41:59;;;;;;;5.73;2.00;;;15.60;99.90;;;;;;5073744;28;20175;-78
2022/09/09 06:44:26;;;;;;;8.13;2.97;;;15.70;99.90;;;;;;5075478;28;20636;-78
2022/09/09 06:46:52;;;;;;;7.10;2.13;;;15.70;99.90;;;;;;5075599;28;20163;-78
2022/09/09 06:49:18;;;;;;;5.27;2.07;;;15.70;99.90;;;;;;5075889;28;20575;-78
2022/09/09 06:51:43;;;;;;;9.70;2.40;;;15.70;99.90;;;;;;5077087;28;20177;-78
2022/09/09 06:54:11;;;;;;;11.47;2.53;;;15.70;99.90;;;;;;5076947;28;20194;-79
2022/09/09 06:56:41;;;;;;;7.27;1.97;;;15.80;99.90;;;;;;5076117;28;20171;-78
2022/09/09 06:59:08;;;;;;;5.60;1.60;;;15.80;99.90;;;;;;5074684;28;20537;-78
2022/09/09 07:01:46;;;;;;;5.00;1.60;;;15.90;99.90;;;;;;5074254;28;20175;-78
2022/09/09 07:04:13;;;;;;;9.00;2.40;;;15.90;99.90;;;;;;5076485;28;20158;-78
2022/09/09 07:06:42;;;;;;;7.03;1.63;;;15.90;99.90;;;;;;5075068;28;20228;-78
2022/09/09 07:09:10;;;;;;;4.77;1.70;;;16.00;99.90;;;;;;5076907;28;20195;-78
2022/09/09 07:11:39;;;;;;;5.43;1.27;;;16.10;99.90;;;;;;5083574;28;20562;-77
2022/09/09 07:14:04;;;;;;;5.40;1.53;;;16.10;99.90;;;;;;5079974;28;20234;-77
2022/09/09 07:16:33;;;;;;;6.00;1.60;;;16.10;99.90;;;;;;5074229;28;20261;-77
2022/09/09 07:18:58;;;;;;;6.77;1.47;;;16.20;99.90;;;;;;5074827;28;20190;-78
2022/09/09 07:21:28;;;;;;;5.03;1.50;;;16.20;99.90;;;;;;5075161;28;20167;-77
2022/09/09 07:23:55;;;;;;;8.50;1.63;;;16.30;99.90;;;;;;5074339;28;20232;-78
2022/09/09 07:26:24;;;;;;;7.17;1.47;;;16.30;99.90;;;;;;5075112;28;20182;-78
2022/09/09 07:28:49;;;;;;;8.97;1.37;;;16.40;99.90;;;;;;5075530;28;20230;-78
2022/09/09 07:31:21;;;;;;;4.37;1.30;;;16.40;99.90;;;;;;5075196;28;20175;-79
2022/09/09 07:33:48;;;;;;;5.47;1.30;;;16.40;99.90;;;;;;5077251;28;20195;-78
2022/09/09 07:36:16;;;;;;;6.40;1.70;;;16.40;99.90;;;;;;5074998;28;20194;-78
2022/09/09 07:38:45;;;;;;;4.47;1.53;;;16.50;99.90;;;;;;5073831;28;20222;-78
2022/09/09 07:41:16;;;;;;;7.67;1.43;;;16.50;99.90;;;;;;5076217;28;20581;-78
2022/09/09 07:43:42;;;;;;;4.40;0.97;;;16.50;99.90;;;;;;5075041;28;20220;-78
2022/09/09 07:46:10;;;;;;;9.00;1.47;;;16.50;99.90;;;;;;5076878;28;20182;-78
2022/09/09 07:48:36;;;;;;;5.43;1.53;;;16.60;99.90;;;;;;5074927;28;20194;-79
2022/09/09 07:51:11;;;;;;;5.77;1.40;;;16.60;99.90;;;;;;5076606;28;20174;-77
2022/09/09 07:53:38;;;;;;;5.10;1.13;;;16.70;99.90;;;;;;5076039;28;20183;-78
2022/09/09 07:56:09;;;;;;;5.60;1.27;;;16.60;99.90;;;;;;5076819;28;20185;-78
2022/09/09 07:58:36;;;;;;;7.77;1.40;;;16.70;99.90;;;;;;5076453;28;20195;-78
2022/09/09 08:01:11;;;;;;;6.63;1.23;;;16.70;99.90;;;;;;5077154;28;20179;-78
2022/09/09 08:03:37;;;;;;;6.90;1.07;;;16.70;99.90;;;;;;5081257;28;20170;-78
2022/09/09 08:06:06;;;;;;;8.27;1.50;;;16.70;99.90;;;;;;5081041;28;20205;-78
2022/09/09 08:08:31;;;;;;;8.43;2.17;;;16.70;99.90;;;;;;5080333;28;20240;-78
2022/09/09 08:11:07;;;;;;;6.93;1.37;;;16.80;99.90;;;;;;5080663;28;20262;-78
2022/09/09 08:13:34;;;;;;;7.23;1.27;;;16.80;99.90;;;;;;5080632;28;20563;-78
2022/09/09 08:16:14;;;;;;;4.47;1.20;;;16.90;99.90;;;;;;5079622;28;20280;-78
2022/09/09 08:18:40;;;;;;;5.47;1.07;;;17.00;99.90;;;;;;5080602;28;20195;-78
2022/09/09 08:21:11;;;;;;;2.60;1.13;;;17.00;99.90;;;;;;5080812;28;20535;-78
2022/09/09 08:23:41;;;;;;;7.77;1.13;;;17.10;99.90;;;;;;5079122;28;20163;-78
2022/09/09 08:26:13;;;;;;;5.87;1.17;;;17.20;99.90;;;;;;5081153;28;20246;-78
2022/09/09 08:28:39;;;;;;;2.17;0.90;;;17.30;99.90;;;;;;5080865;28;20202;-79
2022/09/09 08:31:14;;;;;;;2.63;1.00;;;17.30;99.90;;;;;;5082330;28;20271;-78
2022/09/09 08:33:41;;;;;;;6.93;1.20;;;17.30;99.90;;;;;;5084842;28;20186;-77
2022/09/09 08:36:09;;;;;;;3.57;1.20;;;17.40;99.90;;;;;;5086450;28;20171;-78
2022/09/09 08:38:37;;;;;;;4.60;0.80;;;17.30;99.90;;;;;;5081820;28;20241;-78
2022/09/09 08:41:47;;;;;;;6.73;1.13;;;17.50;99.90;;;;;;5078828;28;20174;-78
2022/09/09 08:44:38;;;;;;;6.00;1.17;;;17.70;99.90;;;;;;5079861;28;20250;-78
2022/09/09 08:47:25;;;;;;;5.23;0.93;;;17.70;99.90;;;;;;5079552;28;20163;-77
2022/09/09 08:50:15;;;;;;;7.10;1.10;;;17.80;99.90;;;;;;5079604;28;20167;-78
2022/09/09 08:53:08;;;;;;;6.67;1.03;;;17.90;99.90;;;;;;5080260;28;20273;-78
2022/09/09 08:55:52;;;;;;;5.37;1.20;;;17.90;99.90;;;;;;5080092;28;20175;-78
2022/09/09 08:58:33;;;;;;;4.70;1.10;;;18.00;99.90;;;;;;5080455;28;20190;-79
2022/09/09 09:01:18;;;;;;;2.83;0.70;;;18.10;99.90;;;;;;5079513;28;20563;-78
2022/09/09 09:03:53;;;;;;;1.60;0.97;;;18.20;99.90;;;;;;5080598;28;20178;-81
2022/09/09 09:06:43;;;;;;;4.70;1.17;;;18.20;99.90;;;;;;5080286;28;20158;-81
2022/09/09 09:09:25;;;;;;;3.70;1.10;;;18.30;1.00;;;;;;5078807;28;20568;-80
2022/09/09 09:12:00;;;;;;;1.63;0.70;;;18.30;99.90;;;;;;5076317;28;20178;-80
2022/09/09 09:14:33;;;;;;;6.73;1.47;;;18.40;99.90;;;;;;5079537;28;20193;-80
2022/09/09 09:17:03;;;;;;;1.63;0.80;;;18.40;99.90;;;;;;5079348;28;20151;-80
2022/09/09 09:19:32;;;;;;;4.80;1.00;;;18.50;50.00;;;;;;5077394;28;20198;-80
2022/09/09 09:22:36;;;;;;;4.53;0.80;;;18.50;1.00;;;;;;5078052;28;20171;-79
2022/09/09 09:25:17;;;;;;;5.43;1.47;;;18.60;1.00;;;;;;5077986;28;20519;-80
2022/09/09 09:27:54;;;;;;;4.43;1.27;;;18.60;1.00;;;;;;5076066;28;20179;-79
2022/09/09 09:30:26;;;;;;;4.57;1.00;;;18.70;99.90;;;;;;5077650;28;20242;-78
2022/09/09 09:32:58;;;;;;;6.13;1.40;;;18.70;99.90;;;;;;5075753;28;20294;-79
2022/09/09 09:35:23;;;;;;;9.07;1.23;;;18.60;1.00;;;;;;5077859;28;20189;-78
2022/09/09 09:37:50;;;;;;;2.43;1.00;;;18.60;64.60;;;;;;5076386;28;20187;-78
2022/09/09 09:40:19;;;;;;;3.83;0.77;;;18.60;1.00;;;;;;5077490;28;20167;-79
2022/09/09 09:42:59;;;;;;;3.43;1.07;;;18.60;24.80;;;;;;5076506;28;20207;-78
2022/09/09 09:45:34;;;;;;;4.73;1.03;;;18.60;99.90;;;;;;5078382;28;20158;-79
2022/09/09 09:48:05;;;;;;;2.07;0.77;;;18.60;1.00;;;;;;5076702;28;20277;-78
2022/09/09 09:50:32;;;;;;;2.73;1.10;;;18.60;99.90;;;;;;5076908;28;20163;-78
2022/09/09 09:53:00;;;;;;;3.07;1.10;;;18.50;1.00;;;;;;5085470;28;20560;-78
2022/09/09 09:55:29;;;;;;;1.50;0.60;;;18.60;1.00;;;;;;5096639;28;20174;-77
2022/09/09 09:58:04;;;;;;;3.20;1.10;;;18.80;99.90;;;;;;5096277;28;20217;-78
2022/09/09 10:00:30;;;;;;;2.60;0.93;;;18.90;99.90;;;;;;5081925;28;20209;-79
2022/09/09 10:02:56;;;;;;;2.33;0.60;;;19.00;57.90;;;;;;5077076;28;20645;-78
2022/09/09 10:05:31;;;;;;;1.37;0.80;;;19.10;1.00;;;;;;5075037;28;20179;-78
2022/09/09 10:08:02;;;;;;;2.57;1.07;;;19.10;1.00;;;;;;5077014;28;20217;-79
2022/09/09 10:10:38;;;;;;;3.93;0.93;;;19.30;99.90;;;;;;5076886;28;20213;-78
2022/09/09 10:13:32;;;;;;;4.77;1.23;;;19.40;1.00;;;;;;5075427;28;20202;-78
2022/09/09 10:16:06;;;;;;;2.10;0.67;;;19.40;99.90;;;;;;5077219;28;20167;-79
2022/09/09 10:18:49;;;;;;;3.23;0.70;;;19.50;1.00;;;;;;5077013;28;20206;-79
2022/09/09 10:21:23;;;;;;;4.80;1.10;;;19.50;1.00;;;;;;5076938;28;20249;-79
2022/09/09 10:24:10;;;;;;;2.67;0.73;;;19.50;99.90;;;;;;5075258;28;20570;-80
2022/09/09 10:26:44;;;;;;;1.27;0.77;;;19.50;1.00;;;;;;5076857;28;20258;-79
2022/09/09 10:29:34;;;;;;;2.33;0.80;;;19.50;99.90;;;;;;5076618;28;20264;-79
2022/09/09 10:32:17;;;;;;;3.37;0.90;;;19.60;1.00;;;;;;5076953;28;20170;-80
2022/09/09 10:34:45;;;;;;;3.90;0.80;;;19.50;1.00;;;;;;5077369;28;20191;-78
2022/09/09 10:37:42;;;;;;;2.53;0.93;;;19.50;99.90;;;;;;5074941;28;20171;-78
2022/09/09 10:40:51;;;;;;;3.90;0.93;;;19.40;1.00;;;;;;5076719;28;20183;-79
2022/09/09 10:43:34;;;;;;;4.73;0.90;;;19.30;1.00;;;;;;5077409;28;20628;-79
2022/09/09 10:46:27;;;;;;;2.27;0.87;;;19.30;1.00;;;;;;5076937;28;20167;-79
2022/09/09 10:49:12;;;;;;;7.80;0.80;;;19.20;1.00;;;;;;5075090;28;20206;-79
2022/09/09 10:51:44;;;;;;;5.87;0.90;;;19.30;1.00;;;;;;5075279;28;20185;-78
2022/09/09 10:54:32;;;;;;;3.67;0.93;;;19.40;1.00;;;;;;5074613;28;20205;-80
2022/09/09 10:57:04;;;;;;;3.73;0.83;;;19.40;1.00;;;;;;5075178;28;20159;-79
2022/09/09 10:59:36;;;;;;;3.07;1.07;;;19.50;1.00;;;;;;5076861;28;20226;-79
2022/09/09 11:02:26;;;;;;;5.33;1.50;;;19.60;1.00;;;;;;5075398;28;20163;-80
2022/09/09 11:04:59;;;;;;;5.70;0.90;;;19.70;1.00;;;;;;5076914;28;20159;-79
2022/09/09 11:07:38;;;;;;;4.57;0.80;;;19.80;88.90;;;;;;5076949;28;20220;-79
2022/09/09 11:10:16;;;;;;;4.20;1.03;;;19.80;1.00;;;;;;5075265;28;20220;-79
2022/09/09 11:12:47;;;;;;;1.73;0.70;;;19.90;1.00;;;;;;5075005;28;20169;-79
2022/09/09 11:15:26;;;;;;;1.97;0.83;;;19.80;99.90;;;;;;5075243;28;20166;-79
2022/09/09 11:17:58;;;;;;;1.33;0.63;;;19.80;99.90;;;;;;5076339;28;20230;-79
2022/09/09 11:20:25;;;;;;;2.10;0.70;;;19.80;45.10;;;;;;5076538;28;20174;-79
2022/09/09 11:22:51;;;;;;;4.17;1.00;;;19.80;1.00;;;;;;5074703;28;20223;-79
2022/09/09 11:25:42;;;;;;;1.50;0.80;;;19.80;1.00;;;;;;5076637;28;20593;-79
2022/09/09 11:28:11;;;;;;;1.97;0.60;;;19.90;99.90;;;;;;5076780;28;20202;-79
2022/09/09 11:30:57;;;;;;;2.77;0.73;;;19.90;99.90;;;;;;5074025;28;20212;-79
2022/09/09 11:33:48;;;;;;;3.50;1.10;;;20.00;99.90;;;;;;5075347;28;20186;-79
2022/09/09 11:36:34;;;;;;;2.67;0.80;;;20.00;1.00;;;;;;5076193;28;20579;-79
2022/09/09 11:39:46;;;;;;;2.07;0.60;;;20.00;99.90;;;;;;5079484;28;20182;-79
2022/09/09 11:42:19;;;;;;;1.17;0.50;;;20.00;1.00;;;;;;5078488;28;20629;-79
2022/09/09 11:44:45;;;;;;;0.97;0.70;;;20.00;99.90;;;;;;5077189;28;20163;-80
2022/09/09 11:47:31;;;;;;;2.70;0.67;;;20.00;99.90;;;;;;5077417;28;20175;-79
2022/09/09 11:50:14;;;;;;;3.70;0.80;;;20.10;1.00;;;;;;5078460;28;20158;-79
2022/09/09 11:52:46;;;;;;;1.30;0.60;;;20.10;1.00;;;;;;5078926;28;20520;-79
2022/09/09 11:55:26;;;;;;;1.87;0.63;;;20.20;27.50;;;;;;5079385;28;20643;-80
2022/09/09 11:58:06;;;;;;;1.23;0.73;;;20.30;1.00;;;;;;5078585;28;20190;-80
2022/09/09 12:00:37;;;;;;;2.63;0.87;;;20.50;1.00;;;;;;5077848;28;20197;-79
2022/09/09 12:03:04;;;;;;;0.90;0.60;;;20.60;1.00;;;;;;5076680;28;20596;-80
2022/09/09 12:05:39;;;;;;;0.97;0.50;;;20.60;1.00;;;;;;5077978;28;20171;-79
2022/09/09 12:08:06;;;;;;;1.63;0.60;;;20.50;1.00;;;;;;5077911;28;20193;-79
2022/09/09 12:10:35;;;;;;;1.20;0.60;;;20.50;1.00;;;;;;5076700;28;20177;-78
2022/09/09 12:13:23;;;;;;;4.13;0.60;;;20.40;1.00;;;;;;5077829;28;20191;-78
2022/09/09 12:15:51;;;;;;;0.60;0.40;;;20.30;99.90;;;;;;5078070;28;20170;-79
2022/09/09 12:18:37;;;;;;;2.20;0.70;;;20.30;1.00;;;;;;5077727;28;20672;-79
2022/09/09 12:21:10;;;;;;;3.30;0.73;;;20.30;1.00;;;;;;5078307;28;20166;-79
2022/09/09 12:23:47;;;;;;;3.80;0.80;;;20.40;1.00;;;;;;5078044;28;20159;-79
2022/09/09 12:26:37;;;;;;;2.47;0.80;;;20.60;1.00;;;;;;5079306;28;20151;-80
2022/09/09 12:29:34;;;;;;;3.10;0.60;;;20.80;1.00;;;;;;5055948;22;1090166;-91
2022/09/09 12:32:14;;;;;;;2.67;0.60;;;20.80;99.90;;;;;;5076918;28;20191;-92
2022/09/09 12:38:00;;;;;;;5.70;0.80;;;20.70;99.90;;;;;;5097915;28;20219;-82
2022/09/09 12:40:34;;;;;;;2.00;0.87;;;20.50;99.90;;;;;;5074873;28;20197;-82
2022/09/09 12:43:01;;;;;;;2.57;0.60;;;20.40;99.90;;;;;;5077641;28;20234;-82
2022/09/09 12:45:32;;;;;;;5.67;1.27;;;20.30;1.00;;;;;;5076833;28;20186;-82
2022/09/09 12:48:02;;;;;;;2.00;0.63;;;19.80;1.00;;;;;;5078785;28;20625;-82
2022/09/09 12:50:30;;;;;;;1.53;0.60;;;19.70;99.90;;;;;;5077735;28;20197;-82
2022/09/09 12:52:59;;;;;;;3.23;0.70;;;19.40;1.00;;;;;;5078861;28;20171;-82
2022/09/09 12:55:29;;;;;;;2.57;0.80;;;19.00;1.00;;;;;;5078558;28;20175;-82
2022/09/09 12:57:56;;;;;;;2.90;1.03;;;18.90;1.00;;;;;;5077483;28;20159;-81
2022/09/09 13:00:24;;;;;;;2.60;0.90;;;18.50;49.90;;;;;;5077251;28;20175;-82
2022/09/09 13:02:58;;;;;;;2.83;0.90;;;18.60;99.90;;;;;;5078088;28;20297;-81
2022/09/09 13:05:35;;;;;;;2.13;0.63;;;18.40;1.00;;;;;;5077349;28;20170;-82
2022/09/09 13:08:09;;;;;;;3.70;1.00;;;18.10;43.50;;;;;;5077805;28;20212;-81
2022/09/09 13:10:40;;;;;;;2.73;0.87;;;17.90;99.90;;;;;;5079120;28;20147;-82
2022/09/09 13:13:19;;;;;;;4.70;1.20;;;17.80;99.90;;;;;;5077281;28;20661;-82
2022/09/09 13:15:57;;;;;;;4.73;1.10;;;17.80;99.90;;;;;;5079941;28;20497;-82
2022/09/09 13:18:29;;;;;;;2.07;0.60;;;17.80;99.90;;;;;;5078981;28;20183;-81
2022/09/09 13:20:57;;;;;;;2.07;0.80;;;17.80;28.60;;;;;;5078567;28;20527;-82
2022/09/09 13:23:27;;;;;;;1.80;0.73;;;17.90;99.90;;;;;;5077522;28;20273;-81
2022/09/09 13:25:54;;;;;;;2.67;0.90;;;18.00;99.90;;;;;;5076835;28;20237;-82